createdAt,value
2022-12-23T00:01:13.606Z,9.90
2022-12-23T00:03:40.203Z,9.82
2022-12-23T00:06:12.149Z,9.89
2022-12-23T00:08:38.649Z,9.85
2022-12-23T00:11:06.880Z,9.93
2022-12-23T00:13:52.033Z,9.94
2022-12-23T00:16:18.639Z,9.89
2022-12-23T00:18:45.150Z,9.80
2022-12-23T00:21:14.055Z,9.86
2022-12-23T00:23:43.752Z,9.85
2022-12-23T00:26:15.879Z,9.80
2022-12-23T00:28:42.560Z,9.79
2022-12-23T00:31:09.846Z,9.83
2022-12-23T00:33:38.802Z,9.81
2022-12-23T00:36:23.385Z,9.64
2022-12-23T00:39:09.135Z,9.75
2022-12-23T00:41:54.035Z,9.71
2022-12-23T00:44:20.697Z,9.72
2022-12-23T00:46:47.127Z,9.63
2022-12-23T00:49:33.250Z,9.71
2022-12-23T00:52:00.159Z,9.63
2022-12-23T00:54:26.725Z,9.69
2022-12-23T00:56:53.737Z,9.63
2022-12-23T00:59:20.135Z,9.70
2022-12-23T01:02:05.529Z,9.67
2022-12-23T01:04:50.966Z,9.67
2022-12-23T01:07:19.862Z,9.72
2022-12-23T01:09:46.310Z,9.75
2022-12-23T01:12:12.730Z,9.65
2022-12-23T01:14:39.188Z,9.67
2022-12-23T01:17:07.098Z,9.70
2022-12-23T01:19:33.984Z,9.67
2022-12-23T01:22:00.344Z,9.68
2022-12-23T01:24:32.670Z,9.64
2022-12-23T01:26:59.552Z,9.69
2022-12-23T01:29:26.253Z,9.71
2022-12-23T01:31:52.759Z,9.73
2022-12-23T01:34:19.260Z,9.74
2022-12-23T01:36:45.774Z,9.71
2022-12-23T01:39:12.191Z,9.76
2022-12-23T01:41:57.415Z,9.74
2022-12-23T01:44:52.680Z,9.72
2022-12-23T01:47:24.776Z,9.67
2022-12-23T01:49:54.722Z,9.70
2022-12-23T01:52:21.230Z,9.40
2022-12-23T01:54:47.875Z,9.59
2022-12-23T01:57:14.399Z,9.66
2022-12-23T02:00:13.548Z,9.64
2022-12-23T02:02:59.626Z,9.59
2022-12-23T02:05:26.333Z,9.68
2022-12-23T02:08:11.919Z,9.61
2022-12-23T02:11:02.554Z,9.51
2022-12-23T02:14:03.221Z,9.53
2022-12-23T02:16:33.936Z,9.57
2022-12-23T02:19:10.224Z,9.55
2022-12-23T02:22:14.033Z,9.55
2022-12-23T02:25:04.883Z,9.48
2022-12-23T02:27:49.745Z,9.48
2022-12-23T02:30:22.196Z,9.46
2022-12-23T02:33:03.747Z,9.49
2022-12-23T02:35:44.218Z,9.45
2022-12-23T02:38:25.766Z,9.43
2022-12-23T02:41:16.940Z,9.38
2022-12-23T02:44:04.492Z,9.34
2022-12-23T02:46:44.834Z,9.30
2022-12-23T02:49:15.079Z,9.31
2022-12-23T02:51:44.675Z,9.32
2022-12-23T02:54:14.343Z,9.24
2022-12-23T02:56:43.470Z,9.25
2022-12-23T02:59:16.552Z,9.30
2022-12-23T03:01:44.640Z,9.19
2022-12-23T03:04:11.164Z,9.14
2022-12-23T03:06:43.548Z,9.21
2022-12-23T03:09:29.928Z,9.25
2022-12-23T03:12:27.302Z,9.20
2022-12-23T03:15:02.321Z,9.18
2022-12-23T03:17:35.272Z,9.27
2022-12-23T03:20:15.271Z,9.19
2022-12-23T03:23:02.151Z,9.23
2022-12-23T03:25:34.367Z,9.22
2022-12-23T03:28:10.369Z,9.22
2022-12-23T03:30:39.534Z,9.24
2022-12-23T03:33:22.678Z,9.27
2022-12-23T03:35:53.727Z,9.32
2022-12-23T03:38:21.555Z,9.26
2022-12-23T03:40:50.687Z,9.35
2022-12-23T03:43:27.650Z,9.30
2022-12-23T03:45:58.146Z,9.28
2022-12-23T03:48:37.292Z,9.28
2022-12-23T03:51:09.598Z,9.36
2022-12-23T03:53:46.819Z,9.31
2022-12-23T03:56:21.188Z,9.36
2022-12-23T03:58:48.885Z,9.40
2022-12-23T04:01:38.169Z,9.36
2022-12-23T04:04:11.944Z,9.37
2022-12-23T04:07:27.994Z,9.31
2022-12-23T04:09:54.712Z,9.31
2022-12-23T04:12:23.250Z,9.35
2022-12-23T04:14:50.048Z,9.43
2022-12-23T04:17:16.701Z,9.39
2022-12-23T04:19:45.566Z,9.44
2022-12-23T04:22:13.118Z,9.34
2022-12-23T04:24:39.785Z,9.31
2022-12-23T04:27:07.021Z,9.34
2022-12-23T04:29:36.097Z,9.36
2022-12-23T04:32:02.465Z,9.46
2022-12-23T04:34:28.899Z,9.46
2022-12-23T04:36:55.465Z,9.51
2022-12-23T04:39:22.110Z,9.49
2022-12-23T04:41:48.734Z,9.50
2022-12-23T04:44:15.172Z,9.47
2022-12-23T04:46:42.000Z,9.46
2022-12-23T04:49:08.657Z,9.47
2022-12-23T04:51:35.070Z,9.50
2022-12-23T04:54:01.513Z,9.51
2022-12-23T04:56:27.978Z,9.58
2022-12-23T04:58:54.513Z,9.58
2022-12-23T05:01:20.993Z,9.64
2022-12-23T05:03:47.490Z,9.63
2022-12-23T05:06:13.945Z,9.64
2022-12-23T05:08:40.304Z,9.66
2022-12-23T05:11:07.413Z,9.61
2022-12-23T05:13:33.841Z,9.49
2022-12-23T05:16:00.351Z,9.56
2022-12-23T05:18:26.849Z,9.55
2022-12-23T05:20:53.242Z,9.52
2022-12-23T05:23:19.608Z,9.53
2022-12-23T05:25:51.065Z,9.51
2022-12-23T05:28:17.498Z,9.50
2022-12-23T05:30:44.141Z,9.54
2022-12-23T05:33:10.596Z,9.54
2022-12-23T05:35:37.133Z,9.54
2022-12-23T05:38:04.079Z,9.52
2022-12-23T05:40:32.031Z,9.54
2022-12-23T05:43:00.195Z,9.58
2022-12-23T05:45:26.645Z,9.57
2022-12-23T05:47:53.117Z,9.54
2022-12-23T05:50:19.494Z,9.55
2022-12-23T05:52:45.893Z,9.54
2022-12-23T05:55:12.335Z,9.60
2022-12-23T05:57:38.710Z,9.61
2022-12-23T06:00:05.550Z,9.60
2022-12-23T06:02:32.113Z,9.56
2022-12-23T06:04:58.607Z,9.58
2022-12-23T06:07:25.012Z,9.60
2022-12-23T06:09:51.490Z,9.63
2022-12-23T06:12:17.864Z,9.63
2022-12-23T06:14:44.349Z,9.63
2022-12-23T06:17:10.777Z,9.61
2022-12-23T06:19:37.160Z,9.59
2022-12-23T06:22:03.606Z,9.57
2022-12-23T06:24:30.000Z,9.59
2022-12-23T06:26:57.514Z,9.57
2022-12-23T06:29:24.911Z,9.61
2022-12-23T06:31:51.501Z,9.54
2022-12-23T06:34:18.057Z,9.64
2022-12-23T06:36:44.488Z,9.58
2022-12-23T06:39:11.205Z,9.58
2022-12-23T06:41:37.579Z,9.59
2022-12-23T06:44:04.177Z,9.56
2022-12-23T06:46:30.650Z,9.56
2022-12-23T06:48:57.137Z,9.52
2022-12-23T06:51:23.567Z,9.49
2022-12-23T06:53:49.954Z,9.52
2022-12-23T06:56:16.439Z,9.54
2022-12-23T06:58:42.869Z,9.58
2022-12-23T07:01:10.212Z,9.57
2022-12-23T07:03:36.955Z,9.59
2022-12-23T07:06:03.674Z,9.61
2022-12-23T07:08:30.093Z,9.70
2022-12-23T07:11:00.663Z,9.64
2022-12-23T07:13:27.317Z,9.60
2022-12-23T07:15:53.885Z,9.63
2022-12-23T07:18:22.786Z,9.60
2022-12-23T07:20:50.000Z,9.65
2022-12-23T07:23:16.596Z,9.64
2022-12-23T07:25:42.999Z,9.58
2022-12-23T07:28:09.373Z,9.60
2022-12-23T07:30:36.083Z,9.62
2022-12-23T07:33:02.485Z,9.59
2022-12-23T07:35:28.851Z,9.65
2022-12-23T07:37:56.107Z,9.65
2022-12-23T07:40:23.340Z,9.66
2022-12-23T07:42:50.406Z,9.65
2022-12-23T07:45:16.912Z,9.61
2022-12-23T07:47:43.565Z,9.59
2022-12-23T07:50:10.198Z,9.57
2022-12-23T07:52:37.083Z,9.58
2022-12-23T07:55:04.108Z,9.62
2022-12-23T07:57:30.543Z,9.65
2022-12-23T07:59:57.192Z,9.66
2022-12-23T08:02:25.067Z,9.64
2022-12-23T08:04:52.048Z,9.64
2022-12-23T08:07:18.513Z,9.67
2022-12-23T08:09:44.922Z,9.65
2022-12-23T08:12:11.355Z,9.65
2022-12-23T08:14:37.785Z,9.71
2022-12-23T08:17:04.297Z,9.69
2022-12-23T08:19:30.787Z,9.63
2022-12-23T08:21:57.197Z,9.65
2022-12-23T08:24:23.620Z,9.65
2022-12-23T08:26:50.003Z,9.67
2022-12-23T08:29:17.058Z,9.69
2022-12-23T08:31:43.505Z,9.74
2022-12-23T08:34:10.667Z,9.70
2022-12-23T08:36:37.067Z,9.59
2022-12-23T08:39:07.065Z,9.54
2022-12-23T08:41:35.608Z,9.46
2022-12-23T08:44:02.012Z,9.62
2022-12-23T08:46:28.621Z,9.71
2022-12-23T08:48:55.806Z,9.74
2022-12-23T08:51:24.144Z,9.74
2022-12-23T08:53:56.239Z,9.76
2022-12-23T08:56:28.445Z,9.76
2022-12-23T08:58:55.405Z,9.79
2022-12-23T09:01:24.144Z,9.78
2022-12-23T09:03:51.252Z,9.74
2022-12-23T09:06:28.672Z,9.76
2022-12-23T09:08:55.914Z,9.74
2022-12-23T09:11:23.975Z,9.69
2022-12-23T09:13:50.644Z,9.75
2022-12-23T09:16:17.589Z,9.76
2022-12-23T09:18:44.415Z,9.81
2022-12-23T09:21:14.105Z,9.85
2022-12-23T09:23:40.835Z,9.87
2022-12-23T09:26:08.233Z,9.83
2022-12-23T09:28:34.686Z,9.81
2022-12-23T09:31:08.913Z,9.77
2022-12-23T09:33:35.789Z,9.81
2022-12-23T09:36:03.209Z,9.83
2022-12-23T09:38:29.803Z,9.80
2022-12-23T09:41:05.893Z,9.82
2022-12-23T09:43:58.518Z,9.82
2022-12-23T09:46:27.449Z,9.85
2022-12-23T09:49:04.318Z,9.83
2022-12-23T09:51:30.930Z,9.85
2022-12-23T09:54:16.666Z,9.86
2022-12-23T09:57:02.582Z,9.74
2022-12-23T09:59:47.665Z,9.76
2022-12-23T10:02:23.546Z,9.75
2022-12-23T10:04:58.003Z,9.76
2022-12-23T10:07:44.218Z,9.74
2022-12-23T10:10:17.652Z,9.68
2022-12-23T10:12:47.273Z,9.80
2022-12-23T10:15:38.113Z,9.76
2022-12-23T10:18:40.207Z,9.78
2022-12-23T10:21:12.895Z,9.78
2022-12-23T10:23:42.872Z,9.87
2022-12-23T10:26:12.727Z,9.64
2022-12-23T10:28:39.232Z,9.67
2022-12-23T10:34:07.441Z,9.75
2022-12-23T10:37:01.145Z,9.72
2022-12-23T10:39:57.336Z,9.82
2022-12-23T10:42:26.561Z,9.91
2022-12-23T10:45:09.906Z,9.81
2022-12-23T10:48:06.098Z,9.85
2022-12-23T10:50:45.996Z,9.83
2022-12-23T10:53:17.107Z,9.90
2022-12-23T10:55:43.833Z,10.00
2022-12-23T10:58:17.545Z,9.96
2022-12-23T11:00:59.283Z,9.91
2022-12-23T11:03:32.792Z,9.98
2022-12-23T11:05:59.568Z,10.02
2022-12-23T11:08:27.597Z,10.06
2022-12-23T11:10:54.354Z,10.09
2022-12-23T11:13:41.709Z,10.01
2022-12-23T11:16:25.155Z,10.09
2022-12-23T11:18:54.509Z,10.10
2022-12-23T11:21:21.123Z,10.12
2022-12-23T11:23:47.784Z,10.15
2022-12-23T11:26:19.683Z,10.10
2022-12-23T11:28:51.691Z,10.10
2022-12-23T11:31:26.907Z,10.10
2022-12-23T11:33:59.252Z,10.10
2022-12-23T11:36:28.055Z,10.09
2022-12-23T11:39:04.974Z,10.12
2022-12-23T11:41:37.499Z,10.06
2022-12-23T11:44:07.461Z,10.07
2022-12-23T11:46:34.167Z,9.82
2022-12-23T11:49:21.854Z,9.93
2022-12-23T11:52:08.489Z,9.96
2022-12-23T11:54:35.125Z,10.06
2022-12-23T11:57:03.356Z,10.14
2022-12-23T11:59:35.642Z,10.12
2022-12-23T12:02:23.844Z,10.05
2022-12-23T12:04:57.185Z,10.06
2022-12-23T12:07:24.159Z,10.15
2022-12-23T12:09:51.302Z,10.18
2022-12-23T12:12:20.259Z,10.18
2022-12-23T12:14:51.984Z,10.14
2022-12-23T12:17:41.012Z,10.23
2022-12-23T12:20:27.926Z,10.06
2022-12-23T12:22:57.956Z,10.18
2022-12-23T12:25:37.965Z,9.97
2022-12-23T12:28:11.282Z,10.17
2022-12-23T12:30:42.144Z,10.22
2022-12-23T12:33:28.885Z,10.13
2022-12-23T12:36:21.867Z,10.10
2022-12-23T12:38:49.204Z,10.19
2022-12-23T12:41:34.607Z,10.13
2022-12-23T12:44:16.145Z,10.08
2022-12-23T12:46:57.783Z,10.04
2022-12-23T12:49:41.071Z,10.05
2022-12-23T12:52:22.328Z,10.10
2022-12-23T12:54:56.522Z,10.13
2022-12-23T12:57:23.851Z,10.17
2022-12-23T12:59:57.378Z,10.19
2022-12-23T13:02:29.329Z,9.99
2022-12-23T13:05:06.059Z,10.13
2022-12-23T13:07:44.582Z,10.23
2022-12-23T13:10:18.556Z,10.15
2022-12-23T13:12:56.394Z,10.23
2022-12-23T13:15:24.009Z,10.23
2022-12-23T13:18:09.262Z,10.17
2022-12-23T13:21:03.566Z,10.19
2022-12-23T13:23:44.672Z,10.21
2022-12-23T13:26:26.624Z,10.21
2022-12-23T13:29:17.615Z,10.30
2022-12-23T13:31:46.969Z,10.27
2022-12-23T13:34:23.959Z,10.25
2022-12-23T13:36:59.322Z,10.23
2022-12-23T13:39:52.071Z,10.24
2022-12-23T13:42:30.200Z,10.21
2022-12-23T13:44:57.650Z,10.22
2022-12-23T13:48:05.734Z,10.12
2022-12-23T13:50:38.178Z,10.06
2022-12-23T13:53:25.846Z,10.00
2022-12-23T13:55:57.726Z,10.01
2022-12-23T13:58:31.190Z,9.99
2022-12-23T14:00:59.066Z,9.93
2022-12-23T14:03:33.552Z,9.75
2022-12-23T14:06:00.193Z,9.84
2022-12-23T14:08:31.648Z,9.91
2022-12-23T14:11:02.609Z,9.84
2022-12-23T14:13:43.163Z,9.84
2022-12-23T14:16:12.995Z,9.96
2022-12-23T14:19:06.949Z,9.81
2022-12-23T14:22:04.354Z,9.89
2022-12-23T14:24:36.875Z,9.90
2022-12-23T14:27:25.085Z,9.83
2022-12-23T14:29:57.410Z,9.86
2022-12-23T14:32:30.567Z,9.92
2022-12-23T14:35:19.136Z,9.78
2022-12-23T14:38:04.803Z,9.70
2022-12-23T14:40:37.519Z,9.87
2022-12-23T14:43:22.097Z,9.93
2022-12-23T14:46:05.966Z,9.87
2022-12-23T14:48:35.464Z,9.95
2022-12-23T14:51:06.325Z,9.79
2022-12-23T14:53:35.580Z,9.92
2022-12-23T14:56:08.044Z,9.90
2022-12-23T14:58:39.463Z,9.91
2022-12-23T15:01:12.773Z,9.75
2022-12-23T15:03:54.538Z,9.86
2022-12-23T15:06:37.085Z,9.91
2022-12-23T15:09:05.484Z,9.91
2022-12-23T15:11:34.176Z,9.76
2022-12-23T15:14:04.496Z,9.77
2022-12-23T15:16:36.527Z,9.70
2022-12-23T15:19:21.302Z,9.73
2022-12-23T15:21:54.480Z,9.72
2022-12-23T15:24:26.821Z,9.74
2022-12-23T15:27:24.708Z,9.73
2022-12-23T15:29:44.161Z,9.80
2022-12-23T15:32:10.964Z,9.89
2022-12-23T15:34:37.650Z,9.92
2022-12-23T15:37:10.445Z,9.95
2022-12-23T15:39:40.280Z,9.97
2022-12-23T15:42:25.168Z,9.65
2022-12-23T15:44:52.475Z,9.95
2022-12-23T15:47:31.719Z,9.90
2022-12-23T15:49:59.549Z,9.98
2022-12-23T15:52:28.366Z,9.93
2022-12-23T15:55:12.253Z,9.85
2022-12-23T15:57:50.157Z,9.90
2022-12-23T16:00:29.424Z,10.03
2022-12-23T16:03:01.694Z,9.98
2022-12-23T16:05:32.348Z,9.97
2022-12-23T16:08:15.220Z,9.87
2022-12-23T16:11:00.455Z,9.80
2022-12-23T16:13:27.002Z,9.85
2022-12-23T16:15:53.508Z,9.94
2022-12-23T16:18:31.634Z,9.95
2022-12-23T16:21:02.438Z,9.99
2022-12-23T16:23:34.722Z,9.95
2022-12-23T16:26:01.919Z,9.74
2022-12-23T16:28:39.973Z,9.68
2022-12-23T16:31:07.980Z,9.84
2022-12-23T16:33:36.559Z,9.74
2022-12-23T16:36:18.404Z,9.81
2022-12-23T16:38:45.619Z,9.91
2022-12-23T16:41:12.296Z,9.85
2022-12-23T16:43:38.697Z,9.84
2022-12-23T16:46:05.707Z,9.87
2022-12-23T16:48:42.718Z,9.88
2022-12-23T16:51:12.797Z,9.90
2022-12-23T16:53:39.241Z,9.88
2022-12-23T16:56:12.713Z,9.89
2022-12-23T16:58:39.138Z,9.88
2022-12-23T17:01:05.735Z,9.94
2022-12-23T17:03:34.766Z,9.98
2022-12-23T17:06:01.190Z,9.97
2022-12-23T17:08:27.593Z,9.89
2022-12-23T17:10:54.074Z,9.88
2022-12-23T17:13:21.549Z,9.99
2022-12-23T17:15:47.938Z,10.08
2022-12-23T17:18:18.609Z,10.06
2022-12-23T17:20:45.738Z,10.14
2022-12-23T17:23:26.748Z,10.10
2022-12-23T17:25:53.593Z,10.15
2022-12-23T17:28:20.294Z,10.17
2022-12-23T17:30:46.774Z,10.10
2022-12-23T17:33:16.846Z,9.93
2022-12-23T17:35:43.422Z,9.97
2022-12-23T17:38:13.534Z,9.98
2022-12-23T17:40:40.259Z,9.93
2022-12-23T17:43:06.792Z,9.95
2022-12-23T17:45:33.424Z,9.98
2022-12-23T17:47:59.867Z,10.02
2022-12-23T17:50:33.618Z,10.05
2022-12-23T17:52:59.989Z,10.06
2022-12-23T17:55:27.009Z,10.05
2022-12-23T17:57:53.595Z,10.09
2022-12-23T18:00:29.759Z,10.07
2022-12-23T18:03:00.183Z,10.12
2022-12-23T18:05:29.349Z,10.06
2022-12-23T18:07:58.216Z,10.12
2022-12-23T18:10:30.928Z,10.06
2022-12-23T18:13:00.388Z,9.99
2022-12-23T18:15:34.387Z,10.09
2022-12-23T18:18:00.771Z,10.16
2022-12-23T18:20:27.321Z,10.15
2022-12-23T18:22:54.643Z,10.16
2022-12-23T18:25:25.911Z,10.25
2022-12-23T18:27:53.780Z,10.30
2022-12-23T18:30:21.404Z,10.25
2022-12-23T18:32:48.274Z,10.27
2022-12-23T18:35:24.937Z,10.40
2022-12-23T18:37:51.502Z,10.37
2022-12-23T18:40:18.042Z,10.36
2022-12-23T18:42:44.416Z,10.42
2022-12-23T18:45:32.163Z,10.37
2022-12-23T18:47:58.913Z,10.38
2022-12-23T18:50:25.741Z,10.40
2022-12-23T18:52:52.645Z,10.33
2022-12-23T18:55:20.186Z,10.46
2022-12-23T18:57:47.432Z,10.41
2022-12-23T19:00:16.829Z,10.43
2022-12-23T19:02:43.353Z,10.47
2022-12-23T19:05:16.547Z,10.47
2022-12-23T19:07:43.013Z,10.55
2022-12-23T19:10:10.391Z,10.62
2022-12-23T19:12:36.758Z,10.63
2022-12-23T19:15:03.265Z,10.59
2022-12-23T19:17:29.661Z,10.65
2022-12-23T19:19:56.063Z,10.61
2022-12-23T19:22:24.185Z,10.61
2022-12-23T19:25:04.429Z,10.56
2022-12-23T19:27:32.129Z,10.62
2022-12-23T19:29:59.300Z,10.61
2022-12-23T19:32:25.833Z,10.64
2022-12-23T19:34:52.239Z,10.59
2022-12-23T19:37:18.609Z,10.62
2022-12-23T19:39:45.058Z,10.67
2022-12-23T19:42:11.495Z,10.58
2022-12-23T19:44:37.868Z,10.57
2022-12-23T19:47:04.930Z,10.59
2022-12-23T19:49:31.501Z,10.55
2022-12-23T19:51:57.956Z,10.59
2022-12-23T19:54:24.417Z,10.56
2022-12-23T19:56:51.337Z,10.53
2022-12-23T19:59:18.372Z,10.54
2022-12-23T20:01:44.856Z,10.62
2022-12-23T20:04:11.728Z,10.57
2022-12-23T20:06:38.720Z,10.56
2022-12-23T20:09:06.523Z,10.60
2022-12-23T20:11:35.558Z,10.55
2022-12-23T20:14:03.111Z,10.54
2022-12-23T20:16:30.267Z,10.61
2022-12-23T20:18:57.431Z,10.57
2022-12-23T20:21:24.424Z,10.61
2022-12-23T20:23:51.303Z,10.67
2022-12-23T20:26:19.140Z,10.67
2022-12-23T20:28:45.746Z,10.61
2022-12-23T20:31:19.010Z,10.59
2022-12-23T20:33:46.577Z,10.62
2022-12-23T20:36:14.658Z,10.67
2022-12-23T20:38:43.276Z,10.62
2022-12-23T20:41:12.904Z,10.62
2022-12-23T20:43:39.611Z,10.61
2022-12-23T20:46:07.186Z,10.65
2022-12-23T20:48:34.747Z,10.63
2022-12-23T20:51:05.452Z,10.56
2022-12-23T20:53:31.877Z,10.56
2022-12-23T20:56:06.493Z,10.49
2022-12-23T20:58:51.638Z,10.49
2022-12-23T21:01:18.064Z,10.67
2022-12-23T21:03:44.542Z,10.64
2022-12-23T21:06:10.913Z,10.64
2022-12-23T21:08:37.748Z,10.67
2022-12-23T21:11:04.889Z,10.60
2022-12-23T21:13:31.441Z,10.56
2022-12-23T21:16:05.706Z,10.61
2022-12-23T21:18:32.629Z,10.60
2022-12-23T21:21:04.561Z,10.59
2022-12-23T21:23:31.866Z,10.70
2022-12-23T21:26:14.942Z,10.64
2022-12-23T21:28:42.907Z,10.61
2022-12-23T21:31:09.672Z,10.60
2022-12-23T21:33:40.723Z,10.60
2022-12-23T21:36:07.871Z,10.61
2022-12-23T21:38:36.923Z,10.61
2022-12-23T21:41:05.782Z,10.62
2022-12-23T21:43:32.382Z,10.64
2022-12-23T21:46:04.393Z,10.69
2022-12-23T21:48:32.538Z,10.52
2022-12-23T21:51:06.368Z,10.53
2022-12-23T21:53:34.196Z,10.54
2022-12-23T21:56:05.253Z,10.45
2022-12-23T21:58:32.537Z,10.56
2022-12-23T22:00:59.357Z,10.59
2022-12-23T22:03:27.252Z,10.52
2022-12-23T22:05:53.837Z,10.54
2022-12-23T22:08:20.221Z,10.44
2022-12-23T22:10:47.292Z,10.41
2022-12-23T22:13:13.748Z,10.34
2022-12-23T22:15:41.841Z,10.17
2022-12-23T22:18:08.270Z,10.19
2022-12-23T22:20:39.819Z,10.11
2022-12-23T22:23:10.706Z,10.13
2022-12-23T22:25:37.144Z,10.22
2022-12-23T22:28:03.802Z,10.13
2022-12-23T22:30:30.238Z,10.20
2022-12-23T22:32:56.697Z,10.14
2022-12-23T22:35:23.137Z,10.16
2022-12-23T22:37:49.548Z,10.18
2022-12-23T22:40:16.091Z,10.19
2022-12-23T22:42:42.504Z,10.21
2022-12-23T22:45:09.346Z,10.17
2022-12-23T22:47:35.846Z,10.14
2022-12-23T22:50:02.306Z,10.13
2022-12-23T22:52:28.678Z,10.20
2022-12-23T22:54:55.145Z,10.11
2022-12-23T22:57:21.583Z,10.21
2022-12-23T22:59:48.119Z,10.25
2022-12-23T23:02:17.236Z,10.18
2022-12-23T23:04:43.688Z,10.18
2022-12-23T23:07:10.102Z,10.21
2022-12-23T23:09:37.077Z,10.23
2022-12-23T23:12:03.592Z,10.19
2022-12-23T23:14:49.992Z,10.28
2022-12-23T23:17:16.370Z,10.12
2022-12-23T23:19:42.827Z,10.28
2022-12-23T23:22:09.213Z,10.25
2022-12-23T23:24:35.584Z,10.20
2022-12-23T23:27:02.047Z,10.15
2022-12-23T23:29:28.437Z,10.18
2022-12-23T23:31:54.865Z,10.21
2022-12-23T23:34:21.436Z,10.17
2022-12-23T23:36:47.912Z,10.32
2022-12-23T23:39:14.473Z,10.26
2022-12-23T23:41:41.268Z,10.31
2022-12-23T23:44:07.902Z,10.25
2022-12-23T23:46:34.686Z,10.20
2022-12-23T23:49:01.172Z,10.34
2022-12-23T23:51:28.188Z,10.32
2022-12-23T23:53:54.659Z,10.35
2022-12-23T23:56:25.305Z,10.31
2022-12-23T23:58:52.777Z,10.30
